createdAt,value
2022-09-01T00:02:43.141Z,100329.50
2022-09-01T00:05:34.088Z,100336.22
2022-09-01T00:08:23.274Z,100335.63
2022-09-01T00:11:12.101Z,100337.38
2022-09-01T00:14:02.492Z,100342.19
2022-09-01T00:16:51.839Z,100343.72
2022-09-01T00:19:40.595Z,100334.69
2022-09-01T00:22:30.492Z,100337.84
2022-09-01T00:25:20.036Z,100336.41
2022-09-01T00:28:08.662Z,100337.25
2022-09-01T00:30:58.249Z,100339.59
2022-09-01T00:33:48.034Z,100333.84
2022-09-01T00:36:36.684Z,100338.78
2022-09-01T00:39:26.645Z,100335.50
2022-09-01T00:42:15.265Z,100340.19
2022-09-01T00:45:03.847Z,100338.66
2022-09-01T00:47:52.479Z,100339.50
2022-09-01T00:50:41.877Z,100345.13
2022-09-01T00:53:30.759Z,100304.31
2022-09-01T00:56:20.723Z,100344.22
2022-09-01T00:59:09.994Z,100322.88
2022-09-01T01:01:59.367Z,100334.09
2022-09-01T01:04:47.895Z,100331.63
2022-09-01T01:07:39.085Z,100328.91
2022-09-01T01:10:28.999Z,100326.31
2022-09-01T01:13:19.107Z,100326.66
2022-09-01T01:16:08.215Z,100325.97
2022-09-01T01:18:56.821Z,100320.56
2022-09-01T01:22:03.968Z,100313.94
2022-09-01T01:24:55.691Z,100321.03
2022-09-01T01:27:44.238Z,100319.34
2022-09-01T01:30:36.924Z,100315.13
2022-09-01T01:33:28.912Z,100318.06
2022-09-01T01:36:19.824Z,100305.72
2022-09-01T01:39:10.777Z,100330.16
2022-09-01T01:42:00.682Z,100316.53
2022-09-01T01:44:49.880Z,100319.94
2022-09-01T01:47:38.470Z,100322.63
2022-09-01T01:50:29.855Z,100292.75
2022-09-01T01:53:19.111Z,100325.91
2022-09-01T01:56:10.776Z,100328.75
2022-09-01T01:59:01.948Z,100335.06
2022-09-01T02:01:51.424Z,100331.66
2022-09-01T02:04:40.807Z,100285.06
2022-09-01T02:07:30.254Z,100329.53
2022-09-01T02:10:23.956Z,100328.25
2022-09-01T02:13:16.434Z,100329.50
2022-09-01T02:16:12.029Z,100328.78
2022-09-01T02:19:01.774Z,100316.13
2022-09-01T02:21:56.024Z,100330.88
2022-09-01T02:24:49.121Z,100326.94
2022-09-01T02:27:39.970Z,100327.09
2022-09-01T02:30:29.317Z,100323.09
2022-09-01T02:33:20.048Z,100327.09
2022-09-01T02:36:12.698Z,100324.22
2022-09-01T02:39:01.248Z,100326.09
2022-09-01T02:41:50.007Z,100313.72
2022-09-01T02:44:41.438Z,100319.28
2022-09-01T02:47:30.056Z,100328.69
2022-09-01T02:50:21.615Z,100317.59
2022-09-01T02:53:12.763Z,100326.06
2022-09-01T02:56:02.428Z,100314.53
2022-09-01T02:58:51.559Z,100318.41
2022-09-01T03:01:40.503Z,100328.41
2022-09-01T03:04:35.327Z,100321.34
2022-09-01T03:07:26.974Z,100320.53
2022-09-01T03:10:16.403Z,100312.66
2022-09-01T03:13:06.590Z,100315.69
2022-09-01T03:15:55.142Z,100318.50
2022-09-01T03:18:43.848Z,100317.28
2022-09-01T03:21:32.889Z,100303.75
2022-09-01T03:24:23.095Z,100317.84
2022-09-01T03:27:11.767Z,100326.19
2022-09-01T03:30:00.267Z,100321.59
2022-09-01T03:32:49.827Z,100321.44
2022-09-01T03:35:38.438Z,100328.88
2022-09-01T03:38:27.156Z,100328.59
2022-09-01T03:41:18.514Z,100318.34
2022-09-01T03:44:07.049Z,100316.63
2022-09-01T03:46:56.275Z,100318.13
2022-09-01T03:49:45.426Z,100306.22
2022-09-01T03:52:34.184Z,100311.25
2022-09-01T03:55:27.293Z,100321.22
2022-09-01T03:58:20.455Z,100316.25
2022-09-01T04:01:10.866Z,100319.41
2022-09-01T04:04:02.498Z,100313.50
2022-09-01T04:06:51.017Z,100317.00
2022-09-01T04:09:39.878Z,100317.84
2022-09-01T04:12:29.459Z,100321.00
2022-09-01T04:15:19.870Z,100290.63
2022-09-01T04:18:10.702Z,100313.28
2022-09-01T04:21:00.640Z,100317.91
2022-09-01T04:23:49.148Z,100324.41
2022-09-01T04:26:38.383Z,100326.06
2022-09-01T04:29:28.174Z,100314.81
2022-09-01T04:32:21.565Z,100320.09
2022-09-01T04:35:11.559Z,100316.34
2022-09-01T04:38:00.546Z,100319.13
2022-09-01T04:40:50.403Z,100308.19
2022-09-01T04:43:39.920Z,100320.16
2022-09-01T04:46:31.194Z,100318.91
2022-09-01T04:49:22.574Z,100321.97
2022-09-01T04:52:11.099Z,100321.50
2022-09-01T04:55:03.231Z,100319.50
2022-09-01T04:57:52.315Z,100307.13
2022-09-01T05:00:41.633Z,100317.84
2022-09-01T05:03:32.079Z,100320.56
2022-09-01T05:06:21.969Z,100323.25
2022-09-01T05:09:12.133Z,100332.31
2022-09-01T05:12:10.937Z,100322.69
2022-09-01T05:15:06.280Z,100323.81
2022-09-01T05:17:55.491Z,100324.25
2022-09-01T05:20:44.536Z,100323.78
2022-09-01T05:23:36.427Z,100325.94
2022-09-01T05:26:27.628Z,100272.09
2022-09-01T05:29:17.859Z,100325.59
2022-09-01T05:32:09.991Z,100326.94
2022-09-01T05:34:58.936Z,100334.13
2022-09-01T05:37:51.735Z,100323.00
2022-09-01T05:40:42.580Z,100285.72
2022-09-01T05:43:32.454Z,100330.50
2022-09-01T05:46:23.565Z,100332.84
2022-09-01T05:49:13.987Z,100333.09
2022-09-01T05:52:03.064Z,100342.16
2022-09-01T05:54:53.690Z,100343.69
2022-09-01T05:57:48.010Z,100331.84
2022-09-01T06:00:38.534Z,100346.91
2022-09-01T06:03:27.885Z,100337.84
2022-09-01T06:06:16.593Z,100344.19
2022-09-01T06:09:07.605Z,100331.06
2022-09-01T06:11:56.999Z,100326.78
2022-09-01T06:14:48.311Z,100339.06
2022-09-01T06:17:37.008Z,100307.47
2022-09-01T06:20:26.382Z,100337.22
2022-09-01T06:23:17.735Z,100343.25
2022-09-01T06:26:07.024Z,100343.47
2022-09-01T06:28:56.547Z,100344.41
2022-09-01T06:31:51.762Z,100344.03
2022-09-01T06:34:43.509Z,100322.56
2022-09-01T06:37:35.060Z,100350.53
2022-09-01T06:40:25.436Z,100354.56
2022-09-01T06:43:17.257Z,100359.16
2022-09-01T06:46:06.100Z,100366.97
2022-09-01T06:48:59.052Z,100333.50
2022-09-01T06:51:51.679Z,100368.50
2022-09-01T06:54:43.721Z,100363.97
2022-09-01T07:00:41.927Z,100373.66
2022-09-01T07:03:32.076Z,100370.03
2022-09-01T07:09:38.982Z,100374.22
2022-09-01T07:12:36.126Z,100379.59
2022-09-01T07:18:34.138Z,100360.50
2022-09-01T07:21:42.162Z,100260.97
2022-09-01T07:24:35.793Z,100383.22
2022-09-01T07:27:35.645Z,100382.19
2022-09-01T07:30:25.053Z,100380.41
2022-09-01T07:39:48.462Z,100399.03
2022-09-01T07:42:56.885Z,100387.13
2022-09-01T07:49:28.407Z,100406.19
2022-09-01T07:52:09.425Z,100399.06
2022-09-01T07:54:58.132Z,100404.97
2022-09-01T07:57:46.784Z,100407.59
2022-09-01T08:00:35.350Z,100408.28
2022-09-01T08:03:25.881Z,100357.41
2022-09-01T08:06:19.403Z,100405.53
2022-09-01T08:09:11.726Z,100405.88
2022-09-01T08:12:02.905Z,100411.63
2022-09-01T08:15:12.676Z,100390.06
2022-09-01T08:18:01.546Z,100406.97
2022-09-01T08:20:50.109Z,100412.28
2022-09-01T08:23:38.785Z,100412.03
2022-09-01T08:26:28.768Z,100416.66
2022-09-01T08:29:17.341Z,100412.56
2022-09-01T08:32:06.115Z,100401.63
2022-09-01T08:34:54.766Z,100420.44
2022-09-01T08:37:44.136Z,100415.00
2022-09-01T08:40:32.725Z,100407.84
2022-09-01T08:43:30.972Z,100410.00
2022-09-01T08:46:25.575Z,100406.72
2022-09-01T08:49:43.002Z,100413.28
2022-09-01T08:52:29.579Z,100418.91
2022-09-01T08:55:24.064Z,100419.06
2022-09-01T08:58:15.029Z,100414.31
2022-09-01T09:01:11.652Z,100418.16
2022-09-01T09:04:15.089Z,100419.50
2022-09-01T09:07:08.458Z,100398.88
2022-09-01T09:10:00.523Z,100423.50
2022-09-01T09:12:59.580Z,100423.03
2022-09-01T09:15:52.789Z,100426.06
2022-09-01T09:19:01.329Z,100421.88
2022-09-01T09:21:52.097Z,100408.84
2022-09-01T09:24:50.124Z,100419.94
2022-09-01T09:27:40.613Z,100412.03
2022-09-01T09:30:31.387Z,100407.38
2022-09-01T09:33:51.212Z,100414.75
2022-09-01T09:36:42.505Z,100416.97
2022-09-01T09:39:31.364Z,100408.47
2022-09-01T09:42:20.084Z,100397.25
2022-09-01T09:45:23.761Z,100363.16
2022-09-01T09:48:29.149Z,100403.81
2022-09-01T09:51:19.248Z,100397.25
2022-09-01T09:54:19.758Z,100398.09
2022-09-01T09:57:13.362Z,100359.28
2022-09-01T10:00:12.128Z,100391.53
2022-09-01T10:03:04.629Z,100394.81
2022-09-01T10:05:58.612Z,100393.16
2022-09-01T10:08:48.005Z,100396.19
2022-09-01T10:11:41.671Z,100392.31
2022-09-01T10:14:52.408Z,100395.06
2022-09-01T10:17:44.212Z,100387.97
2022-09-01T10:20:34.478Z,100354.91
2022-09-01T10:23:27.187Z,100393.09
2022-09-01T10:26:18.796Z,100396.59
2022-09-01T10:29:15.835Z,100385.50
2022-09-01T10:32:31.536Z,100397.19
2022-09-01T10:35:19.887Z,100393.09
2022-09-01T10:38:18.176Z,100380.84
2022-09-01T10:41:14.994Z,100368.00
2022-09-01T10:44:11.665Z,100379.75
2022-09-01T10:47:06.190Z,100381.06
2022-09-01T10:50:07.695Z,100314.88
2022-09-01T10:53:07.339Z,100341.47
2022-09-01T10:56:04.904Z,100374.69
2022-09-01T11:02:23.847Z,100373.09
2022-09-01T11:05:19.052Z,100367.63
2022-09-01T11:08:23.723Z,100334.25
2022-09-01T11:11:23.880Z,100365.97
2022-09-01T11:14:20.336Z,100357.63
2022-09-01T11:17:16.967Z,100350.47
2022-09-01T11:20:10.192Z,100360.25
2022-09-01T11:23:04.734Z,100353.09
2022-09-01T11:29:07.030Z,100348.09
2022-09-01T11:31:57.248Z,100347.72
2022-09-01T11:34:47.174Z,100341.50
2022-09-01T11:37:35.840Z,100350.78
2022-09-01T11:40:29.642Z,100345.19
2022-09-01T11:43:21.550Z,100341.69
2022-09-01T11:46:15.856Z,100351.00
2022-09-01T11:49:09.067Z,100316.94
2022-09-01T11:51:58.311Z,100345.69
2022-09-01T11:54:47.453Z,100346.50
2022-09-01T11:57:37.274Z,100340.22
2022-09-01T12:00:32.690Z,100330.84
2022-09-01T12:03:23.690Z,100325.06
2022-09-01T12:06:21.011Z,100325.72
2022-09-01T12:09:09.795Z,100329.28
2022-09-01T12:11:58.579Z,100327.41
2022-09-01T12:15:05.654Z,100328.84
2022-09-01T12:17:55.241Z,100322.16
2022-09-01T12:20:44.143Z,100317.00
2022-09-01T12:23:36.603Z,100321.00
2022-09-01T12:26:28.345Z,100311.59
2022-09-01T12:29:17.661Z,100313.66
2022-09-01T12:32:06.600Z,100314.25
2022-09-01T12:35:05.633Z,100307.50
2022-09-01T12:38:25.793Z,100307.34
2022-09-01T12:41:38.966Z,100326.38
2022-09-01T12:44:31.947Z,100318.81
2022-09-01T12:47:50.421Z,100309.22
2022-09-01T12:50:48.203Z,100306.22
2022-09-01T12:53:37.129Z,100313.69
2022-09-01T12:56:31.029Z,100244.91
2022-09-01T12:59:26.280Z,100312.59
2022-09-01T13:02:30.531Z,100233.25
2022-09-01T13:05:31.900Z,100305.44
2022-09-01T13:08:26.912Z,100306.66
2022-09-01T13:11:20.193Z,100295.81
2022-09-01T13:14:09.400Z,100274.66
2022-09-01T13:16:59.462Z,100210.06
2022-09-01T13:19:47.966Z,100272.03
2022-09-01T13:22:37.311Z,100291.41
2022-09-01T13:25:26.190Z,100283.56
2022-09-01T13:28:16.729Z,100286.47
2022-09-01T13:34:16.958Z,100265.25
2022-09-01T13:37:11.239Z,100266.84
2022-09-01T13:39:59.739Z,100263.34
2022-09-01T13:42:49.905Z,100246.69
2022-09-01T13:45:40.829Z,100273.69
2022-09-01T13:49:02.471Z,100265.03
2022-09-01T13:51:40.449Z,100261.03
2022-09-01T13:54:29.019Z,100263.06
2022-09-01T13:57:17.863Z,100255.03
2022-09-01T14:00:10.646Z,100250.66
2022-09-01T14:03:03.218Z,100258.63
2022-09-01T14:05:52.164Z,100251.47
2022-09-01T14:08:42.309Z,100252.91
2022-09-01T14:11:31.967Z,100255.69
2022-09-01T14:14:20.542Z,100251.28
2022-09-01T14:17:09.277Z,100249.09
2022-09-01T14:19:58.287Z,100249.47
2022-09-01T14:22:47.203Z,100243.53
2022-09-01T14:25:37.777Z,100204.91
2022-09-01T14:28:26.385Z,100240.59
2022-09-01T14:31:18.855Z,100235.44
2022-09-01T14:34:07.410Z,100221.78
2022-09-01T14:36:58.027Z,100228.84
2022-09-01T14:39:50.474Z,100224.09
2022-09-01T14:42:40.390Z,100227.75
2022-09-01T14:45:29.634Z,100210.13
2022-09-01T14:48:20.612Z,100212.41
2022-09-01T14:51:10.491Z,100178.91
2022-09-01T14:53:59.447Z,100212.09
2022-09-01T14:59:58.175Z,100215.66
2022-09-01T15:02:47.500Z,100214.53
2022-09-01T15:05:39.793Z,100207.69
2022-09-01T15:08:28.904Z,100214.59
2022-09-01T15:11:20.053Z,100192.91
2022-09-01T15:14:09.336Z,100212.66
2022-09-01T15:17:01.140Z,100205.16
2022-09-01T15:19:49.705Z,100198.59
2022-09-01T15:22:38.257Z,100199.69
2022-09-01T15:25:26.845Z,100189.38
2022-09-01T15:28:15.676Z,100196.97
2022-09-01T15:31:04.202Z,100195.78
2022-09-01T15:33:56.285Z,100196.06
2022-09-01T15:36:45.418Z,100183.63
2022-09-01T15:39:37.688Z,100163.72
2022-09-01T15:42:26.989Z,100190.41
2022-09-01T15:45:17.546Z,100187.91
2022-09-01T15:48:06.335Z,100184.63
2022-09-01T15:51:03.134Z,100180.31
2022-09-01T15:53:52.933Z,100176.78
2022-09-01T15:56:42.890Z,100175.44
2022-09-01T15:59:32.488Z,100162.25
2022-09-01T16:02:27.627Z,100158.25
2022-09-01T16:05:17.787Z,100168.19
2022-09-01T16:08:09.316Z,100050.66
2022-09-01T16:10:57.828Z,100166.47
2022-09-01T16:13:46.483Z,100154.56
2022-09-01T16:16:42.119Z,100162.94
2022-09-01T16:19:35.513Z,100158.53
2022-09-01T16:22:28.139Z,100158.72
2022-09-01T16:25:25.173Z,100148.25
2022-09-01T16:28:25.546Z,100151.53
2022-09-01T16:31:17.811Z,100151.97
2022-09-01T16:34:13.955Z,100149.28
2022-09-01T16:37:06.123Z,100123.78
2022-09-01T16:39:58.608Z,100151.28
2022-09-01T16:42:54.481Z,100142.78
2022-09-01T16:45:52.571Z,100142.25
2022-09-01T16:48:47.105Z,100135.19
2022-09-01T16:51:39.189Z,100138.81
2022-09-01T16:54:37.957Z,100148.16
2022-09-01T16:57:33.653Z,100145.13
2022-09-01T17:00:24.336Z,100135.31
2022-09-01T17:03:17.982Z,100098.69
2022-09-01T17:06:13.886Z,100138.72
2022-09-01T17:09:11.198Z,100132.47
2022-09-01T17:12:15.503Z,100138.84
2022-09-01T17:15:10.186Z,100138.34
2022-09-01T17:18:22.630Z,100137.03
2022-09-01T17:21:15.361Z,100135.78
2022-09-01T17:24:12.404Z,100135.56
2022-09-01T17:27:07.544Z,100146.78
2022-09-01T17:29:57.973Z,100136.78
2022-09-01T17:33:17.448Z,100140.44
2022-09-01T17:36:17.898Z,100150.09
2022-09-01T17:39:14.167Z,100147.69
2022-09-01T17:42:07.327Z,100145.28
2022-09-01T17:44:57.510Z,100154.97
2022-09-01T17:47:54.480Z,100133.50
2022-09-01T17:50:54.902Z,100145.69
2022-09-01T17:53:54.332Z,100165.97
2022-09-01T17:56:51.437Z,100162.47
2022-09-01T17:59:46.020Z,100157.09
2022-09-01T18:02:58.509Z,100162.72
2022-09-01T18:05:49.598Z,100166.28
2022-09-01T18:08:41.946Z,100156.75
2022-09-01T18:11:41.698Z,100164.41
2022-09-01T18:14:35.124Z,100158.16
2022-09-01T18:17:28.267Z,100159.84
2022-09-01T18:20:19.642Z,100167.81
2022-09-01T18:23:10.678Z,100170.81
2022-09-01T18:25:47.459Z,100171.41
2022-09-01T18:28:17.500Z,100176.06
2022-09-01T18:30:53.135Z,100175.28
2022-09-01T18:33:28.733Z,100182.66
2022-09-01T18:36:15.744Z,100182.09
2022-09-01T18:38:46.630Z,100176.63
2022-09-01T18:41:31.895Z,100158.66
2022-09-01T18:44:06.483Z,100184.03
2022-09-01T18:46:41.553Z,100185.38
2022-09-01T18:49:15.760Z,100188.38
2022-09-01T18:51:55.848Z,100184.84
2022-09-01T18:54:30.495Z,100149.56
2022-09-01T18:57:21.095Z,100186.91
2022-09-01T19:00:17.835Z,100182.28
2022-09-01T19:03:14.914Z,100195.38
2022-09-01T19:06:15.376Z,100185.81
2022-09-01T19:09:15.434Z,100177.31
2022-09-01T19:12:14.179Z,100185.19
2022-09-01T19:15:08.721Z,100193.63
2022-09-01T19:18:19.789Z,100187.59
2022-09-01T19:21:13.847Z,100177.81
2022-09-01T19:24:04.797Z,100197.97
2022-09-01T19:26:59.251Z,100201.75
2022-09-01T19:29:52.391Z,100191.66
2022-09-01T19:32:42.000Z,100197.06
2022-09-01T19:35:35.526Z,100179.31
2022-09-01T19:38:28.958Z,100194.34
2022-09-01T19:41:23.464Z,100196.78
2022-09-01T19:44:16.230Z,100197.84
2022-09-01T19:47:11.227Z,100197.56
2022-09-01T19:50:03.596Z,100202.72
2022-09-01T19:52:56.838Z,100202.59
2022-09-01T19:55:49.398Z,100191.44
2022-09-01T19:58:46.529Z,100195.53
2022-09-01T20:01:40.701Z,100191.44
2022-09-01T20:04:38.295Z,100199.81
2022-09-01T20:07:31.680Z,100206.88
2022-09-01T20:10:40.060Z,100181.75
2022-09-01T20:13:39.554Z,100191.03
2022-09-01T20:16:31.754Z,100171.53
2022-09-01T20:19:27.297Z,100202.88
2022-09-01T20:22:22.527Z,100192.00
2022-09-01T20:25:14.363Z,100194.13
2022-09-01T20:28:06.431Z,100203.91
2022-09-01T20:30:58.436Z,100197.81
2022-09-01T20:33:51.965Z,100194.53
2022-09-01T20:36:44.942Z,100201.06
2022-09-01T20:39:56.891Z,100195.34
2022-09-01T20:43:03.742Z,100165.97
2022-09-01T20:45:53.921Z,100194.66
2022-09-01T20:48:43.329Z,100199.78
2022-09-01T20:51:38.300Z,100166.38
2022-09-01T20:54:33.041Z,100182.75
2022-09-01T20:57:28.900Z,100192.03
2022-09-01T21:00:21.712Z,100190.34
2022-09-01T21:03:17.065Z,100186.50
2022-09-01T21:06:10.413Z,100185.91
2022-09-01T21:09:03.659Z,100180.91
2022-09-01T21:11:56.393Z,100177.31
2022-09-01T21:14:54.905Z,100176.44
2022-09-01T21:17:51.837Z,100178.91
2022-09-01T21:20:50.629Z,100183.44
2022-09-01T21:23:39.170Z,100174.75
2022-09-01T21:26:27.764Z,100185.88
2022-09-01T21:29:28.784Z,100186.06
2022-09-01T21:32:17.447Z,100067.88
2022-09-01T21:35:08.098Z,100188.53
2022-09-01T21:37:58.091Z,100189.34
2022-09-01T21:40:47.061Z,100194.78
2022-09-01T21:43:37.501Z,100166.34
2022-09-01T21:46:26.522Z,100183.09
2022-09-01T21:49:15.139Z,100180.59
2022-09-01T21:52:04.270Z,100179.16
2022-09-01T21:54:54.237Z,100182.66
2022-09-01T21:57:43.323Z,100180.69
2022-09-01T22:00:33.464Z,100180.03
2022-09-01T22:03:22.103Z,100175.09
2022-09-01T22:06:12.669Z,100180.25
2022-09-01T22:09:01.456Z,100178.56
2022-09-01T22:11:52.522Z,100137.53
2022-09-01T22:14:41.046Z,100167.97
2022-09-01T22:17:31.475Z,100164.75
2022-09-01T22:20:22.545Z,100162.41
2022-09-01T22:23:11.747Z,100165.97
2022-09-01T22:26:00.295Z,100165.13
2022-09-01T22:28:50.355Z,100168.34
2022-09-01T22:31:40.299Z,100159.91
2022-09-01T22:34:28.842Z,100162.03
2022-09-01T22:37:18.754Z,100162.03
2022-09-01T22:40:08.860Z,100152.31
2022-09-01T22:42:57.516Z,100168.59
2022-09-01T22:45:47.950Z,100168.59
2022-09-01T22:48:36.717Z,100176.09
2022-09-01T22:51:26.565Z,100174.22
2022-09-01T22:54:15.189Z,100174.22
2022-09-01T22:57:03.864Z,100108.75
2022-09-01T22:59:52.411Z,100175.38
2022-09-01T23:02:42.344Z,100161.19
2022-09-01T23:05:31.728Z,100170.66
2022-09-01T23:08:20.268Z,100167.06
2022-09-01T23:11:09.496Z,100141.81
2022-09-01T23:13:58.172Z,100164.75
2022-09-01T23:16:47.111Z,100169.44
2022-09-01T23:19:41.296Z,100171.16
2022-09-01T23:22:29.890Z,100169.03
2022-09-01T23:25:18.568Z,100165.09
2022-09-01T23:28:09.898Z,100155.22
2022-09-01T23:30:58.501Z,99928.28
2022-09-01T23:33:48.801Z,100157.94
2022-09-01T23:36:38.738Z,100158.34
2022-09-01T23:39:27.404Z,100147.47
2022-09-01T23:42:15.927Z,100152.91
2022-09-01T23:45:04.978Z,100140.03
2022-09-01T23:47:53.484Z,100146.03
2022-09-01T23:50:43.847Z,100140.25
2022-09-01T23:53:35.234Z,100143.38
2022-09-01T23:56:26.104Z,100138.63
2022-09-01T23:59:14.701Z,100147.38
